sensor_id;sensor_type;location;lat;lon;timestamp;pressure;altitude;pressure_sealevel;temperature;humidity
71903;BME280;59778;50.310;18.780;2022-11-20T00:07:59;98589.75;;;-5.37;78.92
71903;BME280;59778;50.310;18.780;2022-11-20T00:23:20;98586.94;;;-5.61;80.28
71903;BME280;59778;50.310;18.780;2022-11-20T00:38:41;98585.16;;;-5.48;79.37
71903;BME280;59778;50.310;18.780;2022-11-20T00:54:03;98576.59;;;-5.51;80.48
71903;BME280;59778;50.310;18.780;2022-11-20T01:09:24;98562.84;;;-5.44;81.05
71903;BME280;59778;50.310;18.780;2022-11-20T01:24:45;98563.19;;;-5.36;79.18
71903;BME280;59778;50.310;18.780;2022-11-20T01:40:07;98524.28;;;-5.34;80.35
71903;BME280;59778;50.310;18.780;2022-11-20T01:55:31;98512.72;;;-5.33;82.76
71903;BME280;59778;50.310;18.780;2022-11-20T02:10:53;98530.22;;;-5.17;80.60
71903;BME280;59778;50.310;18.780;2022-11-20T02:26:15;98539.75;;;-5.15;79.95
71903;BME280;59778;50.310;18.780;2022-11-20T02:41:37;98556.81;;;-5.73;89.37
71903;BME280;59778;50.310;18.780;2022-11-20T02:56:59;98556.88;;;-5.60;88.09
71903;BME280;59778;50.310;18.780;2022-11-20T03:12:20;98548.41;;;-5.13;84.53
71903;BME280;59778;50.310;18.780;2022-11-20T03:27:41;98547.50;;;-4.99;80.90
71903;BME280;59778;50.310;18.780;2022-11-20T03:43:02;98547.75;;;-5.42;81.45
71903;BME280;59778;50.310;18.780;2022-11-20T03:58:23;98552.47;;;-5.86;87.34
71903;BME280;59778;50.310;18.780;2022-11-20T04:13:59;98552.56;;;-5.48;83.13
71903;BME280;59778;50.310;18.780;2022-11-20T04:29:21;98542.19;;;-5.51;82.37
71903;BME280;59778;50.310;18.780;2022-11-20T04:44:42;98518.59;;;-5.54;81.48
71903;BME280;59778;50.310;18.780;2022-11-20T05:00:04;98503.06;;;-5.46;79.62
71903;BME280;59778;50.310;18.780;2022-11-20T05:15:25;98482.50;;;-5.55;79.56
71903;BME280;59778;50.310;18.780;2022-11-20T05:30:47;98487.16;;;-5.59;78.61
71903;BME280;59778;50.310;18.780;2022-11-20T05:46:09;98484.56;;;-5.86;79.40
71903;BME280;59778;50.310;18.780;2022-11-20T06:01:30;98472.75;;;-6.07;80.14
71903;BME280;59778;50.310;18.780;2022-11-20T06:16:52;98490.81;;;-6.13;80.50
71903;BME280;59778;50.310;18.780;2022-11-20T06:32:13;98485.09;;;-5.93;78.96
71903;BME280;59778;50.310;18.780;2022-11-20T06:47:34;98469.47;;;-6.10;81.25
71903;BME280;59778;50.310;18.780;2022-11-20T07:02:55;98452.31;;;-5.78;81.50
71903;BME280;59778;50.310;18.780;2022-11-20T07:18:16;98457.78;;;-5.42;81.89
71903;BME280;59778;50.310;18.780;2022-11-20T07:33:37;98453.41;;;-4.54;86.66
71903;BME280;59778;50.310;18.780;2022-11-20T07:48:59;98434.78;;;-3.82;90.00
71903;BME280;59778;50.310;18.780;2022-11-20T08:04:20;98441.66;;;-3.09;90.54
71903;BME280;59778;50.310;18.780;2022-11-20T08:19:41;98460.75;;;-2.26;87.74
71903;BME280;59778;50.310;18.780;2022-11-20T08:35:02;98457.47;;;-1.76;86.89
71903;BME280;59778;50.310;18.780;2022-11-20T08:50:25;98460.25;;;-1.46;84.77
71903;BME280;59778;50.310;18.780;2022-11-20T09:05:46;98471.31;;;-1.29;84.09
71903;BME280;59778;50.310;18.780;2022-11-20T09:21:12;98468.44;;;-1.37;84.52
71903;BME280;59778;50.310;18.780;2022-11-20T09:36:33;98437.19;;;-0.94;84.19
71903;BME280;59778;50.310;18.780;2022-11-20T09:51:58;98417.91;;;0.13;82.24
71903;BME280;59778;50.310;18.780;2022-11-20T10:07:23;98408.38;;;0.29;78.60
71903;BME280;59778;50.310;18.780;2022-11-20T10:23:16;98393.47;;;-0.02;81.71
71903;BME280;59778;50.310;18.780;2022-11-20T10:38:54;98369.22;;;0.95;79.54
71903;BME280;59778;50.310;18.780;2022-11-20T10:54:40;98337.81;;;1.89;74.06
71903;BME280;59778;50.310;18.780;2022-11-20T11:10:24;98342.31;;;2.06;73.95
71903;BME280;59778;50.310;18.780;2022-11-20T11:25:56;98347.91;;;1.68;76.36
71903;BME280;59778;50.310;18.780;2022-11-20T11:41:22;98322.69;;;1.70;78.88
71903;BME280;59778;50.310;18.780;2022-11-20T11:56:44;98321.28;;;1.49;80.00
71903;BME280;59778;50.310;18.780;2022-11-20T12:12:14;98304.25;;;1.67;80.22
71903;BME280;59778;50.310;18.780;2022-11-20T12:43:27;98243.97;;;2.60;75.12
71903;BME280;59778;50.310;18.780;2022-11-20T12:59:27;98250.06;;;2.26;76.76
71903;BME280;59778;50.310;18.780;2022-11-20T13:15:33;98236.22;;;2.31;76.56
71903;BME280;59778;50.310;18.780;2022-11-20T13:30:58;98222.59;;;1.81;78.50
71903;BME280;59778;50.310;18.780;2022-11-20T13:46:19;98218.47;;;1.33;80.99
71903;BME280;59778;50.310;18.780;2022-11-20T14:01:45;98199.03;;;1.14;82.72
71903;BME280;59778;50.310;18.780;2022-11-20T14:17:15;98211.63;;;1.21;83.24
71903;BME280;59778;50.310;18.780;2022-11-20T14:32:37;98197.56;;;1.19;82.89
71903;BME280;59778;50.310;18.780;2022-11-20T14:47:59;98193.31;;;1.26;82.43
71903;BME280;59778;50.310;18.780;2022-11-20T15:03:20;98179.47;;;1.31;82.17
71903;BME280;59778;50.310;18.780;2022-11-20T15:18:41;98176.41;;;1.26;83.24
71903;BME280;59778;50.310;18.780;2022-11-20T15:34:05;98171.56;;;1.12;85.03
71903;BME280;59778;50.310;18.780;2022-11-20T15:49:27;98156.16;;;1.06;85.81
71903;BME280;59778;50.310;18.780;2022-11-20T16:04:51;98149.59;;;1.18;86.05
71903;BME280;59778;50.310;18.780;2022-11-20T16:20:12;98159.22;;;1.28;86.12
71903;BME280;59778;50.310;18.780;2022-11-20T16:35:34;98161.41;;;1.15;86.02
71903;BME280;59778;50.310;18.780;2022-11-20T16:50:55;98148.25;;;0.86;87.12
71903;BME280;59778;50.310;18.780;2022-11-20T17:06:18;98171.16;;;0.62;88.39
71903;BME280;59778;50.310;18.780;2022-11-20T17:21:40;98156.22;;;0.41;90.04
71903;BME280;59778;50.310;18.780;2022-11-20T17:37:01;98139.72;;;0.19;91.14
71903;BME280;59778;50.310;18.780;2022-11-20T17:52:23;98118.31;;;-0.09;92.81
71903;BME280;59778;50.310;18.780;2022-11-20T18:07:44;98128.44;;;-0.31;94.88
71903;BME280;59778;50.310;18.780;2022-11-20T18:23:05;98134.78;;;-0.32;94.99
71903;BME280;59778;50.310;18.780;2022-11-20T18:38:26;98116.69;;;-0.38;95.86
71903;BME280;59778;50.310;18.780;2022-11-20T18:53:47;98138.56;;;-0.35;96.18
71903;BME280;59778;50.310;18.780;2022-11-20T19:09:10;98121.66;;;-0.07;94.27
71903;BME280;59778;50.310;18.780;2022-11-20T19:24:32;98118.03;;;-0.15;91.45
71903;BME280;59778;50.310;18.780;2022-11-20T19:39:53;98123.28;;;-0.42;90.76
71903;BME280;59778;50.310;18.780;2022-11-20T19:55:18;98123.59;;;-0.74;92.29
71903;BME280;59778;50.310;18.780;2022-11-20T20:10:40;98103.09;;;-0.74;92.48
71903;BME280;59778;50.310;18.780;2022-11-20T20:26:02;98117.28;;;-0.64;90.93
71903;BME280;59778;50.310;18.780;2022-11-20T20:41:25;98112.09;;;-0.56;92.20
71903;BME280;59778;50.310;18.780;2022-11-20T20:56:46;98109.38;;;-0.36;93.94
71903;BME280;59778;50.310;18.780;2022-11-20T21:12:07;98101.34;;;-0.27;94.34
71903;BME280;59778;50.310;18.780;2022-11-20T21:27:28;98115.94;;;-0.21;95.50
71903;BME280;59778;50.310;18.780;2022-11-20T21:42:49;98126.31;;;-0.09;95.22
71903;BME280;59778;50.310;18.780;2022-11-20T21:58:12;98102.66;;;0.06;95.59
71903;BME280;59778;50.310;18.780;2022-11-20T22:13:34;98120.00;;;0.29;94.48
71903;BME280;59778;50.310;18.780;2022-11-20T22:29:16;98129.19;;;0.44;93.49
71903;BME280;59778;50.310;18.780;2022-11-20T22:44:37;98130.88;;;0.45;93.26
71903;BME280;59778;50.310;18.780;2022-11-20T22:59:58;98131.00;;;0.54;94.43
71903;BME280;59778;50.310;18.780;2022-11-20T23:15:20;98130.75;;;0.47;95.47
71903;BME280;59778;50.310;18.780;2022-11-20T23:30:41;98134.50;;;0.54;96.43
71903;BME280;59778;50.310;18.780;2022-11-20T23:46:03;98146.38;;;0.42;99.24
